Petrey, Alabama
Current Conditions -  °F | °C
As of 6:41 AM on Monday 22 Dec 2014 (Local Time) from KTOI Reporting Station
Haze Haze  
Wind Chill: 50°   Ceiling: 200
Heat Index: 50°   Visibility: 1.2mi
Dew Point: 49°   Wind: 5mph
Humidity: 96%   Direction: 80°E
Pressure: 29.99"   Gusts: NA
Location:  31.85°N, 86.21°W
Report Text: KTOI 221241Z AUTO 08004KT 1 1/4SM BR OVC002 10/09 A2999 RMK AO2 T01000094
Loading
Personal Weather Stations






























Interactive Weather Map New forecast layout! Learn more

10-Day Weather Forecast

Advertisements
Track Severe Weather on mobile